Time;durP1;ratioP1;P1;durP2;ratioP2;P2;SDS_P1;SDS_P2;PMS_P1;PMS_P2;Temp;Humidity;BMP_temperature;BMP_pressure;BME280_temperature;BME280_humidity;BME280_pressure;Samples;Min_cycle;Max_cycle;Signal;HPM_P1;HPM_P2
2023/06/11 00:00:01;;;;;;;10.68;5.32;;;;;;;24.17;42.06;98009.72;4973078;28;20141;-73
2023/06/11 00:02:32;;;;;;;5.85;5.03;;;;;;;24.20;42.14;98017.25;4956659;28;20049;-74
2023/06/11 00:05:04;;;;;;;5.95;4.60;;;;;;;24.15;42.02;98006.47;4957773;28;20035;-74
2023/06/11 00:07:30;;;;;;;5.78;3.97;;;;;;;24.11;42.01;98002.59;4958104;28;20053;-74
2023/06/11 00:09:55;;;;;;;7.80;4.43;;;;;;;24.14;42.06;98010.97;4973278;28;20383;-73
2023/06/11 00:12:21;;;;;;;7.47;4.63;;;;;;;24.09;42.09;98012.69;4974118;28;20072;-73
2023/06/11 00:14:46;;;;;;;6.78;4.45;;;;;;;24.10;42.12;98009.78;4956704;28;20062;-73
2023/06/11 00:17:12;;;;;;;6.55;4.30;;;;;;;24.07;42.03;98006.72;4972698;28;20027;-73
2023/06/11 00:19:40;;;;;;;10.45;4.10;;;;;;;24.08;42.09;98005.72;4956717;28;20118;-74
2023/06/11 00:22:06;;;;;;;;;;;;;;;24.07;41.98;98010.22;4973241;28;20501;-73
2023/06/11 00:24:32;;;;;;;6.78;3.85;;;;;;;24.01;42.01;98005.78;4974017;28;19914;-74
2023/06/11 00:27:01;;;;;;;8.07;3.78;;;;;;;24.03;42.03;97999.19;4972707;28;20108;-74
2023/06/11 00:29:27;;;;;;;6.85;3.80;;;;;;;24.03;42.04;97998.38;4972527;28;20508;-73
2023/06/11 00:31:53;;;;;;;6.80;3.72;;;;;;;23.99;42.08;98000.69;4973725;28;20118;-73
2023/06/11 00:34:18;;;;;;;4.70;3.30;;;;;;;24.00;41.87;98002.31;4972556;28;20418;-73
2023/06/11 00:36:44;;;;;;;7.93;3.50;;;;;;;24.01;42.01;97998.59;4956306;28;20031;-73
2023/06/11 00:39:11;;;;;;;7.35;3.15;;;;;;;24.01;42.25;98001.25;4972434;28;20434;-73
2023/06/11 00:41:37;;;;;;;8.95;3.42;;;;;;;24.02;42.19;97997.56;4972469;28;20058;-73
2023/06/11 00:44:03;;;;;;;4.75;3.00;;;;;;;23.97;42.19;97994.75;4972126;28;20074;-73
2023/06/11 00:46:31;;;;;;;4.90;3.42;;;;;;;24.03;42.27;98001.84;4972164;28;20041;-73
2023/06/11 00:48:57;;;;;;;6.95;3.70;;;;;;;24.03;42.31;97999.19;4972490;28;20043;-73
2023/06/11 00:51:25;;;;;;;7.80;3.08;;;;;;;23.99;42.00;98000.69;4972332;28;20525;-73
2023/06/11 00:53:52;;;;;;;6.72;2.65;;;;;;;23.99;41.93;98011.34;4971999;28;20058;-73
2023/06/11 00:56:19;;;;;;;5.50;3.08;;;;;;;23.97;41.92;98005.44;4972438;28;20041;-73
2023/06/11 00:58:45;;;;;;;4.72;3.40;;;;;;;23.97;41.90;98007.25;4956394;28;20405;-73
2023/06/11 01:01:11;;;;;;;5.25;3.15;;;;;;;23.97;41.79;98008.09;4940115;28;20034;-74
2023/06/11 01:03:36;;;;;;;5.38;3.30;;;;;;;23.95;41.89;98009.34;4956481;28;20226;-73
2023/06/11 01:06:17;;;;;;;6.28;3.15;;;;;;;23.93;41.69;98014.88;4972138;28;20035;-73
2023/06/11 01:08:42;;;;;;;8.23;3.40;;;;;;;23.89;41.87;98002.22;4956563;28;20379;-74
2023/06/11 01:11:09;;;;;;;4.57;3.20;;;;;;;23.88;42.00;98000.56;4972057;28;20041;-73
2023/06/11 01:13:37;;;;;;;9.80;3.20;;;;;;;23.92;41.85;98015.09;4956011;28;20482;-73
2023/06/11 01:16:14;;;;;;;6.50;3.40;;;;;;;23.88;41.75;98003.25;4972399;28;20038;-74
2023/06/11 01:18:53;;;;;;;4.85;2.95;;;;;;;23.91;41.82;98010.81;4972098;28;20384;-73
2023/06/11 01:21:19;;;;;;;5.25;3.30;;;;;;;23.88;42.01;98001.41;4957334;28;20027;-73
2023/06/11 01:24:07;;;;;;;5.93;3.15;;;;;;;23.92;41.79;98007.09;4955785;28;20529;-73
2023/06/11 01:27:10;;;;;;;4.78;3.17;;;;;;;23.88;41.70;98005.91;4973318;28;20034;-73
2023/06/11 01:29:45;;;;;;;7.60;3.08;;;;;;;23.84;41.71;98001.03;4935970;29;20039;-73
2023/06/11 01:32:10;;;;;;;9.05;3.25;;;;;;;23.85;41.73;98007.19;4936938;29;20043;-73
2023/06/11 01:34:41;;;;;;;9.38;3.40;;;;;;;23.85;41.63;97999.19;4935554;29;20035;-73
2023/06/11 01:37:09;;;;;;;3.95;2.80;;;;;;;23.85;41.68;97996.53;4951656;28;20043;-73
2023/06/11 01:39:34;;;;;;;9.05;3.22;;;;;;;23.86;41.84;97995.47;4936016;29;20040;-73
2023/06/11 01:42:00;;;;;;;5.28;3.08;;;;;;;23.87;41.74;97999.78;4935577;29;20050;-73
2023/06/11 01:44:26;;;;;;;3.90;2.63;;;;;;;23.84;41.66;97993.03;4951558;29;20031;-73
2023/06/11 01:46:52;;;;;;;7.15;2.83;;;;;;;23.84;41.66;97985.03;4919970;29;20487;-73
2023/06/11 01:49:17;;;;;;;5.22;3.00;;;;;;;23.89;41.33;97999.56;4951462;29;20134;-73
2023/06/11 01:51:43;;;;;;;6.05;3.22;;;;;;;23.88;41.16;97990.75;4919659;29;20509;-73
2023/06/11 01:54:08;;;;;;;4.93;3.08;;;;;;;23.88;41.13;97997.91;4935300;29;20051;-73
2023/06/11 01:56:34;;;;;;;4.88;3.10;;;;;;;23.89;41.26;97997.69;4935520;29;20046;-73
2023/06/11 01:59:00;;;;;;;5.53;3.45;;;;;;;23.87;41.32;97991.78;4919935;29;20047;-73
2023/06/11 02:01:28;;;;;;;4.07;3.03;;;;;;;23.87;41.18;97998.97;4935556;29;20035;-73
2023/06/11 02:03:54;;;;;;;8.20;3.38;;;;;;;23.87;41.18;97998.97;4936299;28;20031;-73
2023/06/11 02:06:20;;;;;;;5.45;3.20;;;;;;;23.87;41.12;98002.44;4972792;28;20126;-73
2023/06/11 02:08:45;;;;;;;5.47;3.08;;;;;;;23.87;41.18;97999.78;4971672;28;20145;-73
2023/06/11 02:11:11;;;;;;;5.78;3.10;;;;;;;23.87;41.18;97997.13;4971335;28;20030;-73
2023/06/11 02:13:36;;;;;;;4.72;3.20;;;;;;;23.88;41.11;98000.56;4971723;28;20512;-73
2023/06/11 02:16:01;;;;;;;4.75;3.38;;;;;;;23.86;41.03;97997.31;4958332;28;20031;-73
2023/06/11 02:18:27;;;;;;;7.38;3.17;;;;;;;23.86;41.20;97995.47;4958797;28;20498;-73
2023/06/11 02:20:52;;;;;;;6.93;3.00;;;;;;;23.90;41.04;97999.34;4975263;28;20042;-74
2023/06/11 02:23:18;;;;;;;8.48;3.33;;;;;;;23.89;41.02;98003.03;4975200;28;20089;-74
2023/06/11 02:25:44;;;;;;;6.28;2.78;;;;;;;23.89;40.87;98007.56;4943036;28;20129;-73
2023/06/11 02:28:10;;;;;;;7.82;2.95;;;;;;;23.89;40.82;98000.38;4974990;28;20086;-74
2023/06/11 02:30:35;;;;;;;7.30;3.28;;;;;;;23.89;40.89;98008.34;4959028;28;20070;-74
2023/06/11 02:33:01;;;;;;;6.38;2.92;;;;;;;23.86;40.78;98005.31;4975931;28;20035;-74
2023/06/11 02:35:28;;;;;;;7.68;3.03;;;;;;;23.86;40.97;98003.47;4959147;28;20134;-73
2023/06/11 02:37:53;;;;;;;7.45;3.58;;;;;;;23.89;41.08;98013.69;4974502;28;20398;-73
2023/06/11 02:40:19;;;;;;;6.28;3.63;;;;;;;23.87;41.09;98010.44;4975843;28;20053;-74
2023/06/11 02:42:44;;;;;;;5.30;3.88;;;;;;;23.91;40.97;98018.78;4958703;28;20030;-73
2023/06/11 02:45:10;;;;;;;6.38;3.70;;;;;;;23.83;40.88;97994.09;4975575;28;20058;-73
2023/06/11 02:47:35;;;;;;;11.02;3.60;;;;;;;23.93;40.66;98008.75;4975597;28;20038;-73
2023/06/11 02:50:01;;;;;;;6.95;4.05;;;;;;;23.93;40.72;98004.22;4974465;28;20066;-73
2023/06/11 02:52:26;;;;;;;6.43;3.70;;;;;;;23.93;40.71;98000.75;4958324;28;20062;-74
2023/06/11 02:54:52;;;;;;;7.57;3.88;;;;;;;23.97;40.58;98009.91;4957974;28;20054;-70
2023/06/11 02:57:17;;;;;;;8.73;3.80;;;;;;;24.03;40.66;98011.69;4975438;28;20043;-68
2023/06/11 02:59:43;;;;;;;5.28;3.40;;;;;;;24.13;40.41;98013.84;4975471;28;20468;-68
2023/06/11 03:02:08;;;;;;;6.28;3.40;;;;;;;24.37;40.06;98010.28;4973927;28;20041;-68
2023/06/11 03:04:34;;;;;;;9.07;3.47;;;;;;;24.63;39.44;98008.34;4958369;28;20402;-68
2023/06/11 03:06:59;;;;;;;8.25;3.75;;;;;;;24.92;38.62;98014.72;4942020;28;20038;-67
2023/06/11 03:09:25;;;;;;;10.63;3.78;;;;;;;25.23;38.21;98020.84;4974001;28;20038;-68
2023/06/11 03:11:51;;;;;;;5.13;3.53;;;;;;;25.52;37.66;98009.50;4975373;28;20070;-67
2023/06/11 03:14:17;;;;;;;5.38;3.25;;;;;;;25.82;36.66;98009.38;4975380;28;20019;-68
2023/06/11 03:16:42;;;;;;;6.53;3.13;;;;;;;26.20;36.02;98012.63;4957966;28;20426;-68
2023/06/11 03:19:07;;;;;;;6.47;3.30;;;;;;;26.51;35.38;98017.53;4973694;28;20066;-68
2023/06/11 03:21:33;;;;;;;8.98;3.47;;;;;;;26.80;34.87;98028.28;4974038;28;20060;-68
2023/06/11 03:23:58;;;;;;;8.55;3.22;;;;;;;27.02;34.49;98015.00;4957555;28;20074;-68
2023/06/11 03:26:24;;;;;;;9.32;3.50;;;;;;;27.43;33.94;98021.09;4972659;28;20034;-68
2023/06/11 03:28:50;;;;;;;7.13;3.25;;;;;;;27.77;33.31;98021.06;4973778;28;20394;-68
2023/06/11 03:31:15;;;;;;;10.45;3.20;;;;;;;28.14;32.59;98017.84;4974812;28;20035;-68
2023/06/11 03:33:41;;;;;;;9.73;3.30;;;;;;;28.58;32.09;98033.16;4973512;28;20026;-68
2023/06/11 03:36:06;;;;;;;6.53;3.20;;;;;;;28.98;31.19;98029.25;4957280;28;20035;-68
2023/06/11 03:38:32;;;;;;;9.60;3.20;;;;;;;29.34;30.73;98034.19;4957959;28;20037;-68
2023/06/11 03:40:57;;;;;;;7.30;2.70;;;;;;;29.66;30.00;98030.66;4973707;28;20387;-68
2023/06/11 03:43:23;;;;;;;7.28;3.10;;;;;;;30.10;29.70;98036.59;4957341;28;20370;-67
2023/06/11 03:45:48;;;;;;;6.32;3.05;;;;;;;30.45;28.87;98043.22;4973488;28;20038;-68
2023/06/11 03:48:14;;;;;;;6.53;3.28;;;;;;;30.83;28.23;98046.56;4974340;28;20457;-68
2023/06/11 03:50:39;;;;;;;12.55;3.65;;;;;;;31.19;27.80;98054.75;4974557;28;20035;-68
2023/06/11 03:53:05;;;;;;;19.20;5.10;;;;;;;31.42;27.09;98049.09;4957464;28;20046;-68
2023/06/11 03:55:30;;;;;;;11.20;4.60;;;;;;;31.69;27.10;98048.81;4957099;28;20515;-68
2023/06/11 03:57:56;;;;;;;9.05;4.43;;;;;;;32.03;26.73;98057.13;4974515;28;20039;-68
2023/06/11 04:00:21;;;;;;;8.55;3.80;;;;;;;32.44;26.34;98065.13;4973153;28;20030;-68
2023/06/11 04:02:47;;;;;;;14.30;4.63;;;;;;;32.78;25.71;98058.22;4973369;28;20038;-68
2023/06/11 04:05:12;;;;;;;10.82;3.83;;;;;;;33.16;25.09;98070.19;4972875;28;20062;-68
2023/06/11 04:07:39;;;;;;;6.25;3.40;;;;;;;33.52;24.44;98066.41;4956771;28;20043;-68
2023/06/11 04:10:06;;;;;;;10.45;3.67;;;;;;;33.82;23.89;98067.25;4957271;28;20458;-68
2023/06/11 04:12:32;;;;;;;8.68;4.32;;;;;;;34.20;23.75;98061.97;4956890;28;20031;-68
2023/06/11 04:14:57;;;;;;;10.55;3.60;;;;;;;34.55;23.70;98065.38;4973684;28;20057;-68
2023/06/11 04:17:23;;;;;;;9.32;3.42;;;;;;;34.82;23.28;98058.53;4972670;28;20030;-68
2023/06/11 04:19:48;;;;;;;9.90;3.50;;;;;;;35.10;22.56;98067.63;4956747;28;20098;-68
2023/06/11 04:22:14;;;;;;;6.07;3.25;;;;;;;35.45;22.27;98068.19;4973866;28;20093;-68
2023/06/11 04:24:39;;;;;;;9.93;3.28;;;;;;;35.72;22.23;98063.94;4972567;28;20019;-68
2023/06/11 04:27:06;;;;;;;8.43;2.80;;;;;;;35.99;21.38;98072.16;4956728;28;20037;-68
2023/06/11 04:29:33;;;;;;;7.68;3.00;;;;;;;36.31;21.50;98069.66;4956820;28;20062;-68
2023/06/11 04:32:01;;;;;;;9.77;3.00;;;;;;;36.58;21.02;98080.50;4956963;28;20039;-68
2023/06/11 04:34:29;;;;;;;11.57;5.47;;;;;;;36.96;20.73;98076.75;4957088;28;20757;-68
2023/06/11 04:36:55;;;;;;;6.97;3.33;;;;;;;37.23;20.50;98073.13;4956751;28;20035;-68
2023/06/11 04:39:22;;;;;;;9.27;3.78;;;;;;;37.54;20.22;98079.75;4972354;28;20047;-68
2023/06/11 04:41:48;;;;;;;8.77;4.70;;;;;;;37.81;20.10;98078.78;4956409;28;20463;-68
2023/06/11 04:44:14;;;;;;;10.85;3.80;;;;;;;38.09;19.75;98079.41;4972424;28;20033;-68
2023/06/11 04:46:40;;;;;;;12.13;6.88;;;;;;;38.45;19.75;98081.16;4955546;28;20043;-68
2023/06/11 04:49:06;;;;;;;12.63;4.75;;;;;;;38.77;19.32;98081.88;4973595;28;20122;-69
2023/06/11 04:51:40;;;;;;;7.82;3.97;;;;;;;39.08;18.93;98076.31;4956387;28;20550;-68
2023/06/11 04:54:08;;;;;;;10.63;3.90;;;;;;;39.33;18.31;98079.34;4971981;28;20078;-68
2023/06/11 04:56:34;;;;;;;10.05;3.47;;;;;;;39.62;18.34;98080.59;4972279;28;20525;-69
2023/06/11 04:59:01;;;;;;;10.05;4.53;;;;;;;39.86;17.93;98074.56;4956448;28;20035;-69
2023/06/11 05:01:30;;;;;;;10.80;4.00;;;;;;;40.11;17.56;98077.56;4956216;28;20441;-68
2023/06/11 05:03:56;;;;;;;13.43;3.55;;;;;;;40.29;17.15;98078.28;4972263;28;20112;-69
2023/06/11 05:06:23;;;;;;;6.05;3.40;;;;;;;40.55;16.93;98080.91;4972291;28;20031;-69
2023/06/11 05:08:48;;;;;;;;;;;;;;;40.47;16.82;98087.22;4972709;28;20089;-69
2023/06/11 05:11:14;;;;;;;8.17;3.73;;;;;;;40.83;17.10;98092.13;4972209;28;19914;-69
2023/06/11 05:13:39;;;;;;;15.02;4.95;;;;;;;41.05;17.06;98091.03;4972125;28;20058;-69
2023/06/11 05:16:05;;;;;;;10.70;4.32;;;;;;;41.15;16.60;98083.53;4972255;28;20027;-69
2023/06/11 05:18:31;;;;;;;10.52;4.85;;;;;;;41.46;16.26;98096.78;4972130;28;20057;-70
2023/06/11 05:20:56;;;;;;;11.50;4.53;;;;;;;41.65;16.20;98090.78;4972192;28;20049;-68
2023/06/11 05:23:28;;;;;;;16.25;4.40;;;;;;;41.83;15.92;98096.94;4972027;28;20470;-69
2023/06/11 05:25:58;;;;;;;13.40;4.75;;;;;;;42.12;16.42;98097.88;4972648;28;20086;-68
2023/06/11 05:28:24;;;;;;;9.57;4.60;;;;;;;42.43;15.81;98096.50;4956959;28;20038;-69
2023/06/11 05:30:50;;;;;;;13.03;4.50;;;;;;;42.69;15.58;98104.41;4972231;28;20026;-69
2023/06/11 05:33:16;;;;;;;7.03;3.90;;;;;;;42.75;15.52;98099.50;4953736;28;20082;-69
2023/06/11 05:35:42;;;;;;;;;;;;;;;42.77;15.39;98108.94;4937256;29;20537;-69
2023/06/11 05:38:08;;;;;;;11.13;4.00;;;;;;;43.09;15.33;98111.06;4952465;29;19957;-70
2023/06/11 05:40:34;;;;;;;8.60;3.60;;;;;;;43.23;15.23;98111.47;4952646;29;20031;-69
2023/06/11 05:43:00;;;;;;;6.50;3.83;;;;;;;43.47;15.04;98120.78;4953858;28;20023;-69
2023/06/11 05:45:25;;;;;;;13.73;7.30;;;;;;;43.65;15.27;98118.50;4952791;28;20050;-68
2023/06/11 05:47:51;;;;;;;8.10;4.40;;;;;;;43.77;15.20;98112.94;4952647;29;20131;-69
2023/06/11 05:50:17;;;;;;;11.67;8.80;;;;;;;43.99;15.38;98108.81;4938440;29;20035;-72
2023/06/11 05:52:44;;;;;;;12.77;6.13;;;;;;;44.07;14.95;98113.34;4956602;29;20046;-69
2023/06/11 05:55:09;;;;;;;8.07;6.55;;;;;;;44.15;14.97;98110.78;4940317;29;20075;-69
2023/06/11 05:57:35;;;;;;;8.57;5.83;;;;;;;44.15;15.22;98106.06;4940353;29;20071;-71
2023/06/11 06:00:01;;;;;;;10.40;8.77;;;;;;;44.23;15.00;98118.06;4956602;29;20414;-68
2023/06/11 06:02:26;;;;;;;9.20;6.90;;;;;;;44.32;14.57;98118.69;4957477;28;20387;-68
2023/06/11 06:04:52;;;;;;;8.67;5.87;;;;;;;44.29;15.00;98108.38;4957316;28;20038;-69
2023/06/11 06:07:18;;;;;;;7.27;4.67;;;;;;;44.25;14.64;98116.56;4940208;29;20031;-69
2023/06/11 06:09:43;;;;;;;8.33;4.63;;;;;;;44.17;14.22;98108.44;4924098;29;20050;-69
2023/06/11 06:12:10;;;;;;;9.67;4.83;;;;;;;44.09;14.87;98115.72;4939888;29;20054;-73
2023/06/11 06:14:35;;;;;;;;;;;;;;;43.84;14.88;98123.34;4940932;29;20086;-67
2023/06/11 06:17:00;;;;;;;6.20;3.50;;;;;;;43.80;14.14;98122.47;4957538;28;19918;-69
2023/06/11 06:19:26;;;;;;;10.13;3.70;;;;;;;43.79;14.38;98118.94;4940023;29;20062;-69
2023/06/11 06:21:51;;;;;;;8.57;3.67;;;;;;;43.68;15.18;98124.13;4955489;29;20094;-69
2023/06/11 06:24:17;;;;;;;10.10;3.30;;;;;;;43.61;14.92;98121.16;4956690;28;20036;-69
2023/06/11 06:26:43;;;;;;;7.57;2.90;;;;;;;43.45;14.40;98121.13;4939330;29;20118;-70
2023/06/11 06:29:09;;;;;;;7.57;3.35;;;;;;;43.27;15.27;98106.91;4955567;28;20045;-71
2023/06/11 06:31:38;;;;;;;5.90;3.78;;;;;;;43.20;15.20;98112.97;4939505;29;20045;-68
2023/06/11 06:34:04;;;;;;;5.68;3.13;;;;;;;43.19;15.41;98121.53;4954184;29;20031;-70
2023/06/11 06:36:30;;;;;;;8.65;4.07;;;;;;;43.11;15.52;98119.75;4953829;29;20090;-69
2023/06/11 06:38:55;;;;;;;8.40;4.37;;;;;;;43.11;15.52;98112.34;4954759;28;20043;-69
2023/06/11 06:41:20;;;;;;;9.67;4.37;;;;;;;43.09;15.48;98105.59;4939412;29;20090;-69
2023/06/11 06:43:46;;;;;;;7.63;4.37;;;;;;;43.11;15.21;98114.25;4956250;28;20110;-68
2023/06/11 06:46:12;;;;;;;6.13;3.60;;;;;;;43.01;15.69;98112.81;4956121;28;20399;-73
2023/06/11 06:48:37;;;;;;;8.17;5.63;;;;;;;43.01;15.17;98107.31;4939340;29;20027;-69
2023/06/11 06:51:03;;;;;;;8.23;4.03;;;;;;;42.92;15.95;98115.69;4955264;29;20064;-72
2023/06/11 06:53:28;;;;;;;11.37;3.07;;;;;;;42.84;16.14;98117.41;4955236;29;20125;-73
2023/06/11 06:55:54;;;;;;;6.20;3.30;;;;;;;42.65;16.42;98111.72;4957175;28;20023;-73
2023/06/11 06:58:19;;;;;;;10.80;3.00;;;;;;;42.34;16.39;98113.09;4956604;28;20039;-84
2023/06/11 07:00:45;;;;;;;11.10;3.00;;;;;;;42.10;16.97;98111.91;4939246;29;20039;-76
2023/06/11 07:03:14;;;;;;;10.33;3.30;;;;;;;42.07;16.53;98107.13;4956011;29;20093;-75
2023/06/11 07:05:41;;;;;;;8.68;2.97;;;;;;;41.91;17.20;98103.44;4956423;28;20455;-71
2023/06/11 07:08:08;;;;;;;8.95;2.92;;;;;;;41.79;17.42;98100.69;4953117;28;20035;-70
2023/06/11 07:10:34;;;;;;;6.93;2.70;;;;;;;41.61;17.24;98106.31;4957755;28;20031;-70
2023/06/11 07:12:59;;;;;;;8.02;2.85;;;;;;;41.53;16.97;98102.53;4973850;28;20110;-70
2023/06/11 07:15:25;;;;;;;5.95;3.00;;;;;;;41.43;17.45;98091.19;4974980;28;20031;-69
2023/06/11 07:17:50;;;;;;;7.57;2.92;;;;;;;41.33;17.49;98097.91;4957606;28;20058;-72
2023/06/11 07:20:16;;;;;;;5.90;3.08;;;;;;;41.14;17.66;98101.91;4957601;28;20043;-70
2023/06/11 07:22:41;;;;;;;8.88;2.95;;;;;;;41.03;17.88;98108.91;4973217;28;20039;-72
2023/06/11 07:25:08;;;;;;;5.03;2.70;;;;;;;40.84;18.03;98110.13;4957526;28;20031;-71
2023/06/11 07:27:33;;;;;;;7.55;2.60;;;;;;;40.55;18.30;98097.31;4973160;28;20023;-73
2023/06/11 07:29:59;;;;;;;6.15;2.58;;;;;;;40.43;18.43;98097.22;4974004;28;20097;-71
2023/06/11 07:32:24;;;;;;;6.40;2.33;;;;;;;40.25;18.59;98102.75;4957424;28;20501;-71
2023/06/11 07:34:50;;;;;;;7.22;2.40;;;;;;;40.13;18.60;98113.56;4957515;28;20031;-71
2023/06/11 07:37:15;;;;;;;11.20;2.70;;;;;;;39.98;18.68;98112.19;4973050;28;20069;-72
2023/06/11 07:39:41;;;;;;;5.05;2.45;;;;;;;39.86;18.75;98117.50;4973032;28;20038;-71
2023/06/11 07:42:07;;;;;;;5.75;2.78;;;;;;;39.79;18.91;98118.00;4973468;28;20081;-69
2023/06/11 07:44:32;;;;;;;5.70;2.90;;;;;;;39.53;19.34;98113.38;4956688;28;20486;-77
2023/06/11 07:46:58;;;;;;;5.95;2.45;;;;;;;39.47;19.54;98117.38;4973279;28;20121;-76
2023/06/11 07:49:23;;;;;;;6.70;2.72;;;;;;;39.49;19.57;98108.84;4972721;28;20478;-76
2023/06/11 07:51:49;;;;;;;7.38;2.75;;;;;;;39.35;19.82;98112.56;4972880;28;20033;-76
2023/06/11 07:54:15;;;;;;;7.93;2.88;;;;;;;39.33;19.77;98120.28;4956695;28;20047;-76
2023/06/11 07:56:40;;;;;;;6.15;2.60;;;;;;;39.20;19.81;98118.53;4957439;28;20085;-76
2023/06/11 07:59:06;;;;;;;7.60;2.67;;;;;;;39.13;19.60;98119.00;4956709;28;20121;-76
2023/06/11 08:01:32;;;;;;;8.00;2.70;;;;;;;39.05;19.94;98109.66;4956871;28;20046;-75
2023/06/11 08:03:57;;;;;;;7.43;3.00;;;;;;;39.03;20.08;98108.38;4956332;28;20039;-75
2023/06/11 08:06:23;;;;;;;5.05;2.58;;;;;;;39.00;19.84;98107.09;4955755;28;20050;-75
2023/06/11 08:08:48;;;;;;;5.93;2.50;;;;;;;38.95;19.87;98106.44;4956721;28;20030;-77
2023/06/11 08:11:14;;;;;;;9.85;2.80;;;;;;;38.84;19.78;98109.50;4956496;28;20042;-77
2023/06/11 08:13:40;;;;;;;8.85;2.60;;;;;;;38.87;20.30;98110.75;4971360;28;20414;-77
2023/06/11 08:16:07;;;;;;;7.55;2.70;;;;;;;38.98;20.01;98108.53;4973641;28;20031;-76
2023/06/11 08:18:33;;;;;;;5.00;2.67;;;;;;;39.03;19.97;98111.09;4956455;28;20098;-76
2023/06/11 08:20:58;;;;;;;6.28;2.85;;;;;;;38.94;20.20;98110.31;4972148;28;20046;-77
2023/06/11 08:23:24;;;;;;;5.45;2.70;;;;;;;38.69;20.30;98110.75;4956555;28;20046;-77
2023/06/11 08:25:50;;;;;;;8.77;2.72;;;;;;;38.57;20.49;98113.25;4956453;28;20165;-79
2023/06/11 08:28:16;;;;;;;8.15;2.90;;;;;;;38.64;20.69;98104.66;4956431;28;20575;-76
2023/06/11 08:30:41;;;;;;;10.13;3.22;;;;;;;38.67;20.53;98109.47;4956311;28;20038;-76
2023/06/11 08:33:07;;;;;;;5.82;2.60;;;;;;;38.78;19.94;98101.75;4955984;28;20026;-76
2023/06/11 08:35:32;;;;;;;5.72;2.33;;;;;;;38.84;20.17;98106.78;4955728;28;20522;-75
2023/06/11 08:37:58;;;;;;;5.05;2.42;;;;;;;38.89;20.02;98103.88;4956165;28;20125;-77
2023/06/11 08:40:23;;;;;;;6.43;2.38;;;;;;;38.19;20.53;98100.13;4956083;28;20090;-76
2023/06/11 08:42:50;;;;;;;7.88;2.60;;;;;;;38.22;20.50;98109.63;4972274;28;20031;-78
2023/06/11 08:45:16;;;;;;;11.57;2.40;;;;;;;37.95;21.09;98106.75;4956321;28;20031;-76
2023/06/11 08:47:45;;;;;;;7.38;2.50;;;;;;;37.45;21.57;98102.28;4955557;28;20486;-76
2023/06/11 08:50:11;;;;;;;5.25;2.35;;;;;;;37.31;21.49;98101.53;4971713;28;20039;-76
2023/06/11 08:52:37;;;;;;;7.03;2.80;;;;;;;36.85;22.44;98108.00;4939853;28;20026;-75
2023/06/11 08:55:02;;;;;;;5.95;2.45;;;;;;;36.39;23.35;98102.38;4955756;28;20078;-76
2023/06/11 08:57:28;;;;;;;5.88;2.70;;;;;;;36.03;23.70;98104.94;4973072;28;20018;-79
2023/06/11 08:59:54;;;;;;;6.95;2.50;;;;;;;35.68;24.09;98110.66;4939575;28;20034;-78
2023/06/11 09:02:20;;;;;;;7.97;3.08;;;;;;;35.31;24.59;98108.81;4940026;28;20089;-80
2023/06/11 09:04:46;;;;;;;8.70;3.08;;;;;;;34.91;25.21;98111.00;4955823;28;20122;-81
2023/06/11 09:07:24;;;;;;;8.63;2.80;;;;;;;34.60;25.54;98112.19;4940163;28;20039;-77
2023/06/11 09:10:07;;;;;;;5.60;2.60;;;;;;;34.33;26.09;98109.25;4971881;28;20111;-78
2023/06/11 09:12:32;;;;;;;7.32;2.83;;;;;;;34.10;26.63;98114.34;4955393;28;20027;-77
2023/06/11 09:14:58;;;;;;;6.50;2.60;;;;;;;33.73;26.60;98110.34;4971110;28;20089;-78
2023/06/11 09:17:35;;;;;;;8.50;2.50;;;;;;;33.50;26.98;98112.69;4939792;28;20053;-77
2023/06/11 09:20:06;;;;;;;11.93;2.88;;;;;;;33.25;27.27;98099.34;4972972;28;20039;-77
2023/06/11 09:22:32;;;;;;;5.72;3.03;;;;;;;33.15;27.75;98097.50;4955474;28;20043;-78
2023/06/11 09:25:01;;;;;;;6.82;3.40;;;;;;;33.03;27.87;98103.22;4956681;28;20030;-77
2023/06/11 09:27:27;;;;;;;6.95;2.80;;;;;;;32.88;28.16;98098.72;4958880;28;20549;-78
2023/06/11 09:29:53;;;;;;;5.35;3.20;;;;;;;32.84;28.17;98102.28;4959046;28;20125;-78
2023/06/11 09:32:18;;;;;;;9.90;3.50;;;;;;;32.79;28.40;98095.78;4975189;28;20030;-78
2023/06/11 09:34:45;;;;;;;13.40;3.03;;;;;;;32.75;28.79;98096.63;4959412;28;20029;-73
2023/06/11 09:37:11;;;;;;;10.88;7.25;;;;;;;32.70;29.20;98100.16;4958939;28;20043;-73
2023/06/11 09:39:36;;;;;;;16.02;6.18;;;;;;;32.60;29.89;98108.28;4942671;28;20483;-70
2023/06/11 09:42:02;;;;;;;13.82;4.40;;;;;;;32.56;29.69;98105.34;4974938;28;20027;-70
2023/06/11 09:44:30;;;;;;;11.85;4.10;;;;;;;32.53;29.80;98110.47;4974521;28;20030;-73
2023/06/11 09:46:56;;;;;;;6.72;4.05;;;;;;;32.45;29.87;98112.66;4958698;28;20181;-69
2023/06/11 09:49:21;;;;;;;8.60;4.03;;;;;;;32.37;30.62;98118.66;4959024;28;20480;-70
2023/06/11 09:51:47;;;;;;;8.93;4.70;;;;;;;32.28;30.70;98112.19;4958408;28;20027;-70
2023/06/11 09:54:12;;;;;;;11.38;5.00;;;;;;;32.21;31.21;98117.88;4958593;28;20113;-70
2023/06/11 09:56:38;;;;;;;8.32;4.93;;;;;;;32.13;31.49;98106.81;4975887;28;20031;-69
2023/06/11 09:59:04;;;;;;;14.43;5.28;;;;;;;32.04;32.33;98114.63;4975316;28;20038;-70
2023/06/11 10:01:30;;;;;;;9.88;4.93;;;;;;;31.96;32.59;98117.88;4975884;28;20035;-69
2023/06/11 10:03:56;;;;;;;9.20;4.55;;;;;;;31.89;33.15;98120.84;4959108;28;20467;-69
2023/06/11 10:06:25;;;;;;;12.50;4.53;;;;;;;31.82;33.39;98114.91;4974598;28;20026;-69
2023/06/11 10:08:51;;;;;;;9.93;4.57;;;;;;;31.77;33.64;98129.25;4974851;28;20125;-70
2023/06/11 10:11:19;;;;;;;10.15;4.57;;;;;;;31.68;33.74;98110.06;4974424;28;20379;-70
2023/06/11 10:14:11;;;;;;;10.15;3.97;;;;;;;31.67;33.90;98115.75;4958708;28;20033;-70
2023/06/11 10:16:36;;;;;;;8.20;4.28;;;;;;;31.69;33.61;98097.38;4975707;28;20034;-69
2023/06/11 10:19:09;;;;;;;11.15;4.13;;;;;;;31.76;33.83;98091.75;4974537;28;20035;-69
2023/06/11 10:21:49;;;;;;;9.13;4.07;;;;;;;31.83;33.75;98089.56;4974047;28;20035;-69
2023/06/11 10:24:26;;;;;;;13.27;4.47;;;;;;;32.10;33.15;98106.28;4974730;28;20117;-70
2023/06/11 10:27:09;;;;;;;8.27;4.60;;;;;;;32.15;33.38;98105.47;4974598;28;20034;-71
2023/06/11 10:29:42;;;;;;;9.52;4.45;;;;;;;32.15;33.56;98105.47;4975448;28;20069;-70
2023/06/11 10:32:20;;;;;;;7.25;4.38;;;;;;;32.30;33.07;98101.13;4957961;28;20383;-70
2023/06/11 10:34:56;;;;;;;9.30;4.32;;;;;;;32.36;33.34;98094.63;4974617;28;20387;-71
2023/06/11 10:37:33;;;;;;;6.93;4.28;;;;;;;32.20;33.39;98105.44;4974064;28;20053;-70
2023/06/11 10:39:58;;;;;;;7.72;3.97;;;;;;;32.18;33.86;98125.69;4974364;28;20121;-69
2023/06/11 10:42:42;;;;;;;12.73;4.38;;;;;;;32.01;34.14;98131.38;4974234;28;20039;-72
2023/06/11 10:45:09;;;;;;;13.43;4.32;;;;;;;31.82;34.40;98153.53;4975553;28;20035;-80
2023/06/11 10:47:42;;;;;;;14.10;5.00;;;;;;;31.50;35.01;98170.75;4973835;28;20035;-80
2023/06/11 10:50:08;;;;;;;8.40;3.97;;;;;;;31.10;35.24;98172.25;4958212;28;20486;-79
2023/06/11 10:52:56;;;;;;;11.65;3.97;;;;;;;30.66;35.40;98176.09;4957915;28;20140;-80
2023/06/11 10:55:23;;;;;;;11.23;4.78;;;;;;;30.26;36.98;98176.63;4973695;28;20407;-81
2023/06/11 10:57:52;;;;;;;8.90;4.60;;;;;;;29.91;37.50;98173.44;4974133;28;20043;-80
2023/06/11 11:00:18;;;;;;;8.32;4.50;;;;;;;29.71;38.50;98170.53;4973160;28;20063;-80
2023/06/11 11:02:44;;;;;;;9.85;4.10;;;;;;;29.50;38.89;98164.16;4973896;28;20089;-80
2023/06/11 11:05:09;;;;;;;10.55;4.43;;;;;;;29.33;39.26;98165.06;4957437;28;20030;-80
2023/06/11 11:07:35;;;;;;;8.38;4.57;;;;;;;29.17;40.05;98165.94;4972951;28;20027;-81
2023/06/11 11:10:07;;;;;;;10.82;5.20;;;;;;;29.05;40.22;98164.22;4973706;28;20030;-85
2023/06/11 11:12:40;;;;;;;8.23;5.00;;;;;;;28.94;40.66;98159.78;4958825;28;20482;-83
2023/06/11 11:15:07;;;;;;;10.18;4.82;;;;;;;28.84;40.85;98159.66;4974672;28;20122;-82
2023/06/11 11:17:33;;;;;;;8.70;3.20;;;;;;;28.79;41.15;98159.59;4957434;28;20063;-81
2023/06/11 11:19:58;;;;;;;8.27;3.30;;;;;;;28.65;41.09;98153.78;4957286;28;20069;-81
2023/06/11 11:22:29;;;;;;;9.75;3.42;;;;;;;28.61;41.79;98166.09;4957421;28;20034;-81
2023/06/11 11:25:02;;;;;;;8.48;3.20;;;;;;;28.52;41.69;98160.28;4973371;28;20397;-78
2023/06/11 11:27:27;;;;;;;9.30;3.10;;;;;;;28.45;41.93;98173.91;4957995;28;20073;-75
2023/06/11 11:29:56;;;;;;;9.18;3.72;;;;;;;28.40;42.38;98163.09;4974201;28;20494;-77